sensor_id;sensor_type;location;lat;lon;timestamp;P1;durP1;ratioP1;P2;durP2;ratioP2
22764;SDS011;11549;50.852;3.816;2022-08-01T00:00:09;6.93;;;4.72;;
22764;SDS011;11549;50.852;3.816;2022-08-01T00:02:38;8.88;;;4.50;;
22764;SDS011;11549;50.852;3.816;2022-08-01T00:05:07;10.70;;;5.05;;
22764;SDS011;11549;50.852;3.816;2022-08-01T00:07:37;9.60;;;4.22;;
22764;SDS011;11549;50.852;3.816;2022-08-01T00:10:06;9.25;;;4.90;;
22764;SDS011;11549;50.852;3.816;2022-08-01T00:12:36;8.85;;;4.60;;
22764;SDS011;11549;50.852;3.816;2022-08-01T00:15:06;11.02;;;4.82;;
22764;SDS011;11549;50.852;3.816;2022-08-01T00:17:38;8.15;;;4.72;;
22764;SDS011;11549;50.852;3.816;2022-08-01T00:20:07;9.07;;;5.22;;
22764;SDS011;11549;50.852;3.816;2022-08-01T00:22:38;9.07;;;5.30;;
22764;SDS011;11549;50.852;3.816;2022-08-01T00:25:07;10.80;;;5.20;;
22764;SDS011;11549;50.852;3.816;2022-08-01T00:27:36;11.27;;;5.03;;
22764;SDS011;11549;50.852;3.816;2022-08-01T00:30:05;11.13;;;5.38;;
22764;SDS011;11549;50.852;3.816;2022-08-01T00:32:39;9.73;;;5.43;;
22764;SDS011;11549;50.852;3.816;2022-08-01T00:35:08;12.13;;;5.85;;
22764;SDS011;11549;50.852;3.816;2022-08-01T00:37:36;13.43;;;5.85;;
22764;SDS011;11549;50.852;3.816;2022-08-01T00:40:05;8.70;;;5.05;;
22764;SDS011;11549;50.852;3.816;2022-08-01T00:42:35;14.68;;;6.00;;
22764;SDS011;11549;50.852;3.816;2022-08-01T00:45:09;12.38;;;6.38;;
22764;SDS011;11549;50.852;3.816;2022-08-01T00:47:38;10.95;;;5.90;;
22764;SDS011;11549;50.852;3.816;2022-08-01T00:50:08;14.40;;;6.38;;
22764;SDS011;11549;50.852;3.816;2022-08-01T00:52:38;12.02;;;6.50;;
22764;SDS011;11549;50.852;3.816;2022-08-01T00:55:08;15.30;;;6.93;;
22764;SDS011;11549;50.852;3.816;2022-08-01T00:57:40;15.63;;;7.57;;
22764;SDS011;11549;50.852;3.816;2022-08-01T01:00:29;14.70;;;7.38;;
22764;SDS011;11549;50.852;3.816;2022-08-01T01:03:11;12.63;;;7.10;;
22764;SDS011;11549;50.852;3.816;2022-08-01T01:05:54;14.90;;;7.80;;
22764;SDS011;11549;50.852;3.816;2022-08-01T01:08:30;16.00;;;8.20;;
22764;SDS011;11549;50.852;3.816;2022-08-01T01:11:07;13.20;;;7.63;;
22764;SDS011;11549;50.852;3.816;2022-08-01T01:13:42;14.00;;;7.85;;
22764;SDS011;11549;50.852;3.816;2022-08-01T01:16:16;14.35;;;7.90;;
22764;SDS011;11549;50.852;3.816;2022-08-01T01:18:49;18.08;;;10.07;;
22764;SDS011;11549;50.852;3.816;2022-08-01T01:21:34;18.02;;;9.48;;
22764;SDS011;11549;50.852;3.816;2022-08-01T01:24:14;18.23;;;9.55;;
22764;SDS011;11549;50.852;3.816;2022-08-01T01:26:50;16.95;;;10.38;;
22764;SDS011;11549;50.852;3.816;2022-08-01T01:29:25;14.63;;;9.25;;
22764;SDS011;11549;50.852;3.816;2022-08-01T01:32:17;13.63;;;8.73;;
22764;SDS011;11549;50.852;3.816;2022-08-01T01:34:56;17.42;;;9.40;;
22764;SDS011;11549;50.852;3.816;2022-08-01T01:37:26;16.92;;;9.98;;
22764;SDS011;11549;50.852;3.816;2022-08-01T01:39:57;19.33;;;10.70;;
22764;SDS011;11549;50.852;3.816;2022-08-01T01:42:26;14.25;;;9.30;;
22764;SDS011;11549;50.852;3.816;2022-08-01T01:44:57;17.90;;;10.80;;
22764;SDS011;11549;50.852;3.816;2022-08-01T01:47:28;15.27;;;9.20;;
22764;SDS011;11549;50.852;3.816;2022-08-01T01:49:57;18.10;;;11.20;;
22764;SDS011;11549;50.852;3.816;2022-08-01T01:52:27;16.17;;;10.23;;
22764;SDS011;11549;50.852;3.816;2022-08-01T01:54:57;17.98;;;9.90;;
22764;SDS011;11549;50.852;3.816;2022-08-01T01:57:27;20.60;;;10.93;;
22764;SDS011;11549;50.852;3.816;2022-08-01T01:59:58;17.02;;;10.38;;
22764;SDS011;11549;50.852;3.816;2022-08-01T02:02:28;16.85;;;10.30;;
22764;SDS011;11549;50.852;3.816;2022-08-01T02:04:57;13.63;;;8.77;;
22764;SDS011;11549;50.852;3.816;2022-08-01T02:07:29;16.98;;;10.00;;
22764;SDS011;11549;50.852;3.816;2022-08-01T02:10:00;17.48;;;10.05;;
22764;SDS011;11549;50.852;3.816;2022-08-01T02:12:30;18.15;;;9.63;;
22764;SDS011;11549;50.852;3.816;2022-08-01T02:15:04;21.48;;;11.48;;
22764;SDS011;11549;50.852;3.816;2022-08-01T02:17:42;18.65;;;11.32;;
22764;SDS011;11549;50.852;3.816;2022-08-01T02:20:22;16.70;;;11.10;;
22764;SDS011;11549;50.852;3.816;2022-08-01T02:22:52;18.77;;;11.68;;
22764;SDS011;11549;50.852;3.816;2022-08-01T02:27:56;21.15;;;11.65;;
22764;SDS011;11549;50.852;3.816;2022-08-01T02:30:32;18.00;;;11.43;;
22764;SDS011;11549;50.852;3.816;2022-08-01T02:33:03;21.23;;;13.05;;
22764;SDS011;11549;50.852;3.816;2022-08-01T02:35:41;22.10;;;14.43;;
22764;SDS011;11549;50.852;3.816;2022-08-01T02:38:34;22.70;;;13.75;;
22764;SDS011;11549;50.852;3.816;2022-08-01T02:41:05;22.27;;;14.48;;
22764;SDS011;11549;50.852;3.816;2022-08-01T02:43:37;26.42;;;15.90;;
22764;SDS011;11549;50.852;3.816;2022-08-01T02:46:21;24.13;;;15.23;;
22764;SDS011;11549;50.852;3.816;2022-08-01T02:48:53;25.13;;;16.02;;
22764;SDS011;11549;50.852;3.816;2022-08-01T02:51:26;32.35;;;17.83;;
22764;SDS011;11549;50.852;3.816;2022-08-01T02:53:56;33.65;;;18.65;;
22764;SDS011;11549;50.852;3.816;2022-08-01T02:56:25;37.38;;;20.25;;
22764;SDS011;11549;50.852;3.816;2022-08-01T02:59:02;35.00;;;20.42;;
22764;SDS011;11549;50.852;3.816;2022-08-01T03:01:34;40.05;;;20.98;;
22764;SDS011;11549;50.852;3.816;2022-08-01T03:04:07;38.22;;;21.38;;
22764;SDS011;11549;50.852;3.816;2022-08-01T03:06:36;33.92;;;19.75;;
22764;SDS011;11549;50.852;3.816;2022-08-01T03:09:10;36.42;;;20.98;;
22764;SDS011;11549;50.852;3.816;2022-08-01T03:11:42;34.83;;;21.38;;
22764;SDS011;11549;50.852;3.816;2022-08-01T03:14:12;32.53;;;20.70;;
22764;SDS011;11549;50.852;3.816;2022-08-01T03:16:44;36.08;;;23.58;;
22764;SDS011;11549;50.852;3.816;2022-08-01T03:19:13;34.20;;;20.95;;
22764;SDS011;11549;50.852;3.816;2022-08-01T03:21:44;35.05;;;21.67;;
22764;SDS011;11549;50.852;3.816;2022-08-01T03:24:12;30.48;;;21.00;;
22764;SDS011;11549;50.852;3.816;2022-08-01T03:26:42;31.58;;;22.52;;
22764;SDS011;11549;50.852;3.816;2022-08-01T03:29:12;26.38;;;19.95;;
22764;SDS011;11549;50.852;3.816;2022-08-01T03:31:46;25.67;;;18.42;;
22764;SDS011;11549;50.852;3.816;2022-08-01T03:34:16;22.45;;;16.77;;
22764;SDS011;11549;50.852;3.816;2022-08-01T03:36:48;18.27;;;13.80;;
22764;SDS011;11549;50.852;3.816;2022-08-01T03:39:21;20.60;;;15.65;;
22764;SDS011;11549;50.852;3.816;2022-08-01T03:41:55;28.58;;;18.48;;
22764;SDS011;11549;50.852;3.816;2022-08-01T03:44:28;28.95;;;17.63;;
22764;SDS011;11549;50.852;3.816;2022-08-01T03:47:04;29.67;;;17.15;;
22764;SDS011;11549;50.852;3.816;2022-08-01T03:49:35;26.90;;;15.93;;
22764;SDS011;11549;50.852;3.816;2022-08-01T03:52:08;28.08;;;17.67;;
22764;SDS011;11549;50.852;3.816;2022-08-01T03:54:40;30.23;;;17.15;;
22764;SDS011;11549;50.852;3.816;2022-08-01T03:57:09;29.77;;;16.77;;
22764;SDS011;11549;50.852;3.816;2022-08-01T03:59:58;30.30;;;16.70;;
22764;SDS011;11549;50.852;3.816;2022-08-01T04:02:29;27.40;;;16.10;;
22764;SDS011;11549;50.852;3.816;2022-08-01T04:04:58;30.15;;;16.95;;
22764;SDS011;11549;50.852;3.816;2022-08-01T04:07:27;30.52;;;17.02;;
22764;SDS011;11549;50.852;3.816;2022-08-01T04:09:57;29.70;;;15.60;;
22764;SDS011;11549;50.852;3.816;2022-08-01T04:12:26;28.52;;;16.95;;
22764;SDS011;11549;50.852;3.816;2022-08-01T04:14:54;24.77;;;15.02;;
22764;SDS011;11549;50.852;3.816;2022-08-01T04:17:22;25.30;;;15.55;;
22764;SDS011;11549;50.852;3.816;2022-08-01T04:19:52;25.65;;;15.15;;
22764;SDS011;11549;50.852;3.816;2022-08-01T04:22:20;23.45;;;13.73;;
22764;SDS011;11549;50.852;3.816;2022-08-01T04:24:49;21.00;;;13.38;;
22764;SDS011;11549;50.852;3.816;2022-08-01T04:27:23;25.95;;;14.57;;
22764;SDS011;11549;50.852;3.816;2022-08-01T04:30:16;24.00;;;13.55;;
22764;SDS011;11549;50.852;3.816;2022-08-01T04:32:47;25.15;;;13.88;;
22764;SDS011;11549;50.852;3.816;2022-08-01T04:35:18;19.55;;;11.07;;
22764;SDS011;11549;50.852;3.816;2022-08-01T04:38:08;21.48;;;12.23;;
22764;SDS011;11549;50.852;3.816;2022-08-01T04:40:39;24.05;;;12.48;;
22764;SDS011;11549;50.852;3.816;2022-08-01T04:43:08;26.20;;;13.82;;
22764;SDS011;11549;50.852;3.816;2022-08-01T04:45:39;19.27;;;11.15;;
22764;SDS011;11549;50.852;3.816;2022-08-01T04:48:10;17.90;;;11.50;;
22764;SDS011;11549;50.852;3.816;2022-08-01T04:50:41;20.60;;;13.18;;
22764;SDS011;11549;50.852;3.816;2022-08-01T04:53:12;19.98;;;11.93;;
22764;SDS011;11549;50.852;3.816;2022-08-01T04:55:43;18.05;;;10.50;;
22764;SDS011;11549;50.852;3.816;2022-08-01T04:58:13;20.27;;;11.38;;
22764;SDS011;11549;50.852;3.816;2022-08-01T05:00:44;19.27;;;10.75;;
22764;SDS011;11549;50.852;3.816;2022-08-01T05:03:13;18.23;;;10.38;;
22764;SDS011;11549;50.852;3.816;2022-08-01T05:05:43;17.73;;;10.48;;
22764;SDS011;11549;50.852;3.816;2022-08-01T05:08:11;16.25;;;10.63;;
22764;SDS011;11549;50.852;3.816;2022-08-01T05:10:39;14.13;;;9.00;;
22764;SDS011;11549;50.852;3.816;2022-08-01T05:13:08;16.23;;;9.90;;
22764;SDS011;11549;50.852;3.816;2022-08-01T05:15:37;16.52;;;9.65;;
22764;SDS011;11549;50.852;3.816;2022-08-01T05:18:08;18.10;;;9.20;;
22764;SDS011;11549;50.852;3.816;2022-08-01T05:20:39;16.27;;;9.18;;
22764;SDS011;11549;50.852;3.816;2022-08-01T05:23:12;13.77;;;9.13;;
22764;SDS011;11549;50.852;3.816;2022-08-01T05:26:00;16.77;;;9.82;;
22764;SDS011;11549;50.852;3.816;2022-08-01T05:28:31;15.18;;;9.32;;
22764;SDS011;11549;50.852;3.816;2022-08-01T05:30:59;21.92;;;11.27;;
22764;SDS011;11549;50.852;3.816;2022-08-01T05:33:27;14.57;;;9.68;;
22764;SDS011;11549;50.852;3.816;2022-08-01T05:35:56;18.23;;;10.90;;
22764;SDS011;11549;50.852;3.816;2022-08-01T05:38:26;15.75;;;10.00;;
22764;SDS011;11549;50.852;3.816;2022-08-01T05:40:54;14.95;;;9.25;;
22764;SDS011;11549;50.852;3.816;2022-08-01T05:43:22;16.02;;;9.45;;
22764;SDS011;11549;50.852;3.816;2022-08-01T05:45:54;18.92;;;10.15;;
22764;SDS011;11549;50.852;3.816;2022-08-01T05:48:23;15.57;;;9.98;;
22764;SDS011;11549;50.852;3.816;2022-08-01T05:50:51;17.02;;;9.63;;
22764;SDS011;11549;50.852;3.816;2022-08-01T05:53:25;14.17;;;8.77;;
22764;SDS011;11549;50.852;3.816;2022-08-01T05:55:54;15.80;;;10.07;;
22764;SDS011;11549;50.852;3.816;2022-08-01T05:58:22;15.55;;;9.13;;
22764;SDS011;11549;50.852;3.816;2022-08-01T06:00:51;11.70;;;7.88;;
22764;SDS011;11549;50.852;3.816;2022-08-01T06:03:19;12.93;;;7.55;;
22764;SDS011;11549;50.852;3.816;2022-08-01T06:05:47;10.60;;;7.50;;
22764;SDS011;11549;50.852;3.816;2022-08-01T06:08:16;12.05;;;7.65;;
22764;SDS011;11549;50.852;3.816;2022-08-01T06:10:46;10.40;;;7.25;;
22764;SDS011;11549;50.852;3.816;2022-08-01T06:13:14;10.23;;;6.50;;
22764;SDS011;11549;50.852;3.816;2022-08-01T06:15:42;10.75;;;6.35;;
22764;SDS011;11549;50.852;3.816;2022-08-01T06:18:11;8.57;;;5.97;;
22764;SDS011;11549;50.852;3.816;2022-08-01T06:20:39;9.50;;;6.25;;
22764;SDS011;11549;50.852;3.816;2022-08-01T06:23:08;9.55;;;5.85;;
22764;SDS011;11549;50.852;3.816;2022-08-01T06:25:58;7.60;;;5.13;;
22764;SDS011;11549;50.852;3.816;2022-08-01T06:28:26;10.40;;;6.13;;
22764;SDS011;11549;50.852;3.816;2022-08-01T06:30:55;8.68;;;5.45;;
22764;SDS011;11549;50.852;3.816;2022-08-01T06:33:25;7.35;;;5.53;;
22764;SDS011;11549;50.852;3.816;2022-08-01T06:35:53;8.85;;;5.45;;
22764;SDS011;11549;50.852;3.816;2022-08-01T06:38:21;7.97;;;5.78;;
22764;SDS011;11549;50.852;3.816;2022-08-01T06:40:50;6.88;;;4.97;;
22764;SDS011;11549;50.852;3.816;2022-08-01T06:43:20;9.65;;;6.00;;
22764;SDS011;11549;50.852;3.816;2022-08-01T06:45:49;9.60;;;5.88;;
22764;SDS011;11549;50.852;3.816;2022-08-01T06:48:17;9.77;;;5.53;;
22764;SDS011;11549;50.852;3.816;2022-08-01T06:50:45;9.80;;;5.50;;
22764;SDS011;11549;50.852;3.816;2022-08-01T06:53:34;9.15;;;5.38;;
22764;SDS011;11549;50.852;3.816;2022-08-01T06:56:03;9.50;;;4.95;;
22764;SDS011;11549;50.852;3.816;2022-08-01T06:58:34;7.50;;;4.53;;
22764;SDS011;11549;50.852;3.816;2022-08-01T07:01:02;7.50;;;5.25;;
22764;SDS011;11549;50.852;3.816;2022-08-01T07:03:33;6.07;;;4.20;;
22764;SDS011;11549;50.852;3.816;2022-08-01T07:06:20;7.78;;;4.38;;
22764;SDS011;11549;50.852;3.816;2022-08-01T07:08:50;7.50;;;5.03;;
22764;SDS011;11549;50.852;3.816;2022-08-01T07:11:18;6.88;;;4.95;;
22764;SDS011;11549;50.852;3.816;2022-08-01T07:13:48;7.97;;;4.97;;
22764;SDS011;11549;50.852;3.816;2022-08-01T07:16:17;7.97;;;5.28;;
22764;SDS011;11549;50.852;3.816;2022-08-01T07:18:47;6.63;;;5.05;;
22764;SDS011;11549;50.852;3.816;2022-08-01T07:21:15;6.90;;;4.90;;
22764;SDS011;11549;50.852;3.816;2022-08-01T07:24:04;7.57;;;5.10;;
22764;SDS011;11549;50.852;3.816;2022-08-01T07:26:39;8.43;;;4.57;;
22764;SDS011;11549;50.852;3.816;2022-08-01T07:29:20;7.78;;;4.55;;
22764;SDS011;11549;50.852;3.816;2022-08-01T07:31:50;7.32;;;4.35;;
22764;SDS011;11549;50.852;3.816;2022-08-01T07:34:19;8.07;;;4.10;;
22764;SDS011;11549;50.852;3.816;2022-08-01T07:36:47;6.57;;;3.97;;
22764;SDS011;11549;50.852;3.816;2022-08-01T07:39:16;6.65;;;3.63;;
22764;SDS011;11549;50.852;3.816;2022-08-01T07:41:45;6.53;;;3.53;;
22764;SDS011;11549;50.852;3.816;2022-08-01T07:44:35;6.43;;;2.70;;
22764;SDS011;11549;50.852;3.816;2022-08-01T07:47:04;5.53;;;3.00;;
22764;SDS011;11549;50.852;3.816;2022-08-01T07:49:32;5.82;;;3.60;;
22764;SDS011;11549;50.852;3.816;2022-08-01T07:52:05;4.75;;;3.42;;
22764;SDS011;11549;50.852;3.816;2022-08-01T07:54:34;5.40;;;3.45;;
22764;SDS011;11549;50.852;3.816;2022-08-01T07:57:03;4.18;;;3.00;;
22764;SDS011;11549;50.852;3.816;2022-08-01T07:59:31;4.13;;;2.55;;
22764;SDS011;11549;50.852;3.816;2022-08-01T08:02:01;4.53;;;3.33;;
22764;SDS011;11549;50.852;3.816;2022-08-01T08:04:30;4.50;;;3.03;;
22764;SDS011;11549;50.852;3.816;2022-08-01T08:06:58;6.03;;;3.80;;
22764;SDS011;11549;50.852;3.816;2022-08-01T08:09:27;8.73;;;5.53;;
22764;SDS011;11549;50.852;3.816;2022-08-01T08:12:02;6.53;;;5.20;;
22764;SDS011;11549;50.852;3.816;2022-08-01T08:14:31;6.32;;;4.80;;
22764;SDS011;11549;50.852;3.816;2022-08-01T08:17:01;7.00;;;4.32;;
22764;SDS011;11549;50.852;3.816;2022-08-01T08:19:30;6.95;;;4.43;;
22764;SDS011;11549;50.852;3.816;2022-08-01T08:22:04;6.32;;;4.90;;
22764;SDS011;11549;50.852;3.816;2022-08-01T08:24:33;5.70;;;4.30;;
22764;SDS011;11549;50.852;3.816;2022-08-01T08:27:10;6.55;;;4.20;;
22764;SDS011;11549;50.852;3.816;2022-08-01T08:29:39;5.85;;;3.95;;
22764;SDS011;11549;50.852;3.816;2022-08-01T08:32:09;6.90;;;3.83;;
22764;SDS011;11549;50.852;3.816;2022-08-01T08:34:37;6.65;;;3.72;;
22764;SDS011;11549;50.852;3.816;2022-08-01T08:37:09;4.40;;;3.47;;
22764;SDS011;11549;50.852;3.816;2022-08-01T08:39:38;6.75;;;3.97;;
22764;SDS011;11549;50.852;3.816;2022-08-01T08:42:08;6.60;;;3.83;;
22764;SDS011;11549;50.852;3.816;2022-08-01T08:44:37;5.72;;;4.55;;
22764;SDS011;11549;50.852;3.816;2022-08-01T08:47:11;8.80;;;7.63;;
22764;SDS011;11549;50.852;3.816;2022-08-01T08:49:46;8.43;;;7.50;;
22764;SDS011;11549;50.852;3.816;2022-08-01T08:52:16;9.02;;;7.38;;
22764;SDS011;11549;50.852;3.816;2022-08-01T08:54:46;7.85;;;6.85;;
22764;SDS011;11549;50.852;3.816;2022-08-01T08:57:15;8.45;;;7.13;;
22764;SDS011;11549;50.852;3.816;2022-08-01T08:59:46;7.78;;;6.90;;
22764;SDS011;11549;50.852;3.816;2022-08-01T09:02:19;8.13;;;6.85;;
22764;SDS011;11549;50.852;3.816;2022-08-01T09:04:48;8.00;;;7.20;;
22764;SDS011;11549;50.852;3.816;2022-08-01T09:07:17;8.02;;;7.22;;
22764;SDS011;11549;50.852;3.816;2022-08-01T09:09:45;8.10;;;7.30;;
22764;SDS011;11549;50.852;3.816;2022-08-01T09:12:16;7.65;;;7.00;;
22764;SDS011;11549;50.852;3.816;2022-08-01T09:14:46;8.18;;;7.38;;
22764;SDS011;11549;50.852;3.816;2022-08-01T09:17:16;7.72;;;6.90;;
22764;SDS011;11549;50.852;3.816;2022-08-01T09:19:47;7.95;;;6.75;;
22764;SDS011;11549;50.852;3.816;2022-08-01T09:22:20;7.57;;;6.68;;
22764;SDS011;11549;50.852;3.816;2022-08-01T09:24:56;6.55;;;5.85;;
22764;SDS011;11549;50.852;3.816;2022-08-01T09:27:30;6.25;;;5.32;;
22764;SDS011;11549;50.852;3.816;2022-08-01T09:30:09;8.40;;;5.22;;
22764;SDS011;11549;50.852;3.816;2022-08-01T09:32:57;6.68;;;4.70;;
22764;SDS011;11549;50.852;3.816;2022-08-01T09:35:32;7.28;;;5.00;;
22764;SDS011;11549;50.852;3.816;2022-08-01T09:38:13;6.75;;;5.20;;
22764;SDS011;11549;50.852;3.816;2022-08-01T09:43:15;6.93;;;5.22;;
22764;SDS011;11549;50.852;3.816;2022-08-01T09:45:44;6.15;;;5.55;;
22764;SDS011;11549;50.852;3.816;2022-08-01T09:48:20;7.15;;;6.45;;
22764;SDS011;11549;50.852;3.816;2022-08-01T09:50:54;7.05;;;6.38;;
22764;SDS011;11549;50.852;3.816;2022-08-01T09:53:39;6.53;;;5.93;;
22764;SDS011;11549;50.852;3.816;2022-08-01T09:56:18;8.32;;;6.85;;
22764;SDS011;11549;50.852;3.816;2022-08-01T09:58:54;7.43;;;6.70;;
22764;SDS011;11549;50.852;3.816;2022-08-01T10:01:27;10.88;;;6.72;;
22764;SDS011;11549;50.852;3.816;2022-08-01T10:04:08;9.90;;;8.90;;
22764;SDS011;11549;50.852;3.816;2022-08-01T10:06:39;10.35;;;9.45;;
22764;SDS011;11549;50.852;3.816;2022-08-01T10:09:09;9.55;;;8.35;;
22764;SDS011;11549;50.852;3.816;2022-08-01T10:11:40;10.05;;;9.07;;
22764;SDS011;11549;50.852;3.816;2022-08-01T10:14:10;10.48;;;9.50;;
22764;SDS011;11549;50.852;3.816;2022-08-01T10:16:43;10.18;;;9.27;;
22764;SDS011;11549;50.852;3.816;2022-08-01T10:19:22;9.75;;;8.85;;
22764;SDS011;11549;50.852;3.816;2022-08-01T10:21:55;9.32;;;8.43;;
22764;SDS011;11549;50.852;3.816;2022-08-01T10:24:27;9.90;;;9.10;;
22764;SDS011;11549;50.852;3.816;2022-08-01T10:26:59;8.02;;;7.22;;
22764;SDS011;11549;50.852;3.816;2022-08-01T10:29:40;8.93;;;7.97;;
22764;SDS011;11549;50.852;3.816;2022-08-01T10:32:25;7.70;;;7.00;;
22764;SDS011;11549;50.852;3.816;2022-08-01T10:34:55;7.40;;;6.50;;
22764;SDS011;11549;50.852;3.816;2022-08-01T10:37:35;7.15;;;6.45;;
22764;SDS011;11549;50.852;3.816;2022-08-01T10:40:17;7.57;;;6.80;;
22764;SDS011;11549;50.852;3.816;2022-08-01T10:43:02;6.95;;;6.25;;
22764;SDS011;11549;50.852;3.816;2022-08-01T10:45:31;6.35;;;5.63;;
22764;SDS011;11549;50.852;3.816;2022-08-01T10:48:03;6.97;;;5.35;;
22764;SDS011;11549;50.852;3.816;2022-08-01T10:50:41;6.35;;;5.10;;
22764;SDS011;11549;50.852;3.816;2022-08-01T10:53:14;5.85;;;4.70;;
22764;SDS011;11549;50.852;3.816;2022-08-01T10:55:57;6.07;;;5.10;;
22764;SDS011;11549;50.852;3.816;2022-08-01T10:58:29;5.83;;;4.90;;
22764;SDS011;11549;50.852;3.816;2022-08-01T11:01:19;4.55;;;3.85;;
22764;SDS011;11549;50.852;3.816;2022-08-01T11:04:06;7.07;;;4.57;;
22764;SDS011;11549;50.852;3.816;2022-08-01T11:06:48;5.53;;;4.60;;
22764;SDS011;11549;50.852;3.816;2022-08-01T11:09:22;4.38;;;3.92;;
22764;SDS011;11549;50.852;3.816;2022-08-01T11:12:03;4.50;;;4.10;;
22764;SDS011;11549;50.852;3.816;2022-08-01T11:17:56;5.68;;;4.75;;
22764;SDS011;11549;50.852;3.816;2022-08-01T11:20:30;5.82;;;4.65;;
22764;SDS011;11549;50.852;3.816;2022-08-01T11:29:11;6.35;;;5.75;;
22764;SDS011;11549;50.852;3.816;2022-08-01T11:31:47;7.00;;;5.55;;
22764;SDS011;11549;50.852;3.816;2022-08-01T11:34:17;8.30;;;7.20;;
22764;SDS011;11549;50.852;3.816;2022-08-01T11:36:45;6.72;;;5.90;;
22764;SDS011;11549;50.852;3.816;2022-08-01T11:39:26;6.68;;;6.05;;
22764;SDS011;11549;50.852;3.816;2022-08-01T11:41:55;6.63;;;5.93;;
22764;SDS011;11549;50.852;3.816;2022-08-01T11:44:47;6.50;;;5.90;;
22764;SDS011;11549;50.852;3.816;2022-08-01T11:47:16;6.32;;;5.72;;
22764;SDS011;11549;50.852;3.816;2022-08-01T11:49:47;6.60;;;5.70;;
22764;SDS011;11549;50.852;3.816;2022-08-01T11:52:25;6.65;;;5.70;;
22764;SDS011;11549;50.852;3.816;2022-08-01T11:57:25;6.38;;;5.75;;
22764;SDS011;11549;50.852;3.816;2022-08-01T12:00:00;6.65;;;5.90;;
22764;SDS011;11549;50.852;3.816;2022-08-01T12:02:34;6.40;;;4.88;;
22764;SDS011;11549;50.852;3.816;2022-08-01T12:05:05;5.95;;;4.80;;
22764;SDS011;11549;50.852;3.816;2022-08-01T12:07:37;5.75;;;5.15;;
22764;SDS011;11549;50.852;3.816;2022-08-01T12:10:10;6.00;;;5.20;;
22764;SDS011;11549;50.852;3.816;2022-08-01T12:12:42;5.95;;;4.82;;
22764;SDS011;11549;50.852;3.816;2022-08-01T12:15:11;6.47;;;5.15;;
22764;SDS011;11549;50.852;3.816;2022-08-01T12:17:41;6.10;;;5.47;;
22764;SDS011;11549;50.852;3.816;2022-08-01T12:20:25;6.03;;;5.38;;
22764;SDS011;11549;50.852;3.816;2022-08-01T12:25:27;5.40;;;4.90;;
22764;SDS011;11549;50.852;3.816;2022-08-01T12:27:58;5.25;;;4.75;;
22764;SDS011;11549;50.852;3.816;2022-08-01T12:30:27;6.43;;;5.72;;
22764;SDS011;11549;50.852;3.816;2022-08-01T12:33:01;6.10;;;5.50;;
22764;SDS011;11549;50.852;3.816;2022-08-01T12:35:31;7.25;;;5.53;;
22764;SDS011;11549;50.852;3.816;2022-08-01T12:38:00;6.53;;;5.40;;
22764;SDS011;11549;50.852;3.816;2022-08-01T12:40:32;5.95;;;4.72;;
22764;SDS011;11549;50.852;3.816;2022-08-01T12:43:02;6.53;;;5.10;;
22764;SDS011;11549;50.852;3.816;2022-08-01T12:45:35;4.72;;;3.85;;
22764;SDS011;11549;50.852;3.816;2022-08-01T12:48:22;4.38;;;3.83;;
22764;SDS011;11549;50.852;3.816;2022-08-01T12:50:52;5.68;;;3.55;;
22764;SDS011;11549;50.852;3.816;2022-08-01T12:53:24;5.05;;;2.83;;
22764;SDS011;11549;50.852;3.816;2022-08-01T12:56:08;4.63;;;2.30;;
22764;SDS011;11549;50.852;3.816;2022-08-01T12:58:37;3.75;;;2.20;;
22764;SDS011;11549;50.852;3.816;2022-08-01T13:01:07;3.55;;;2.33;;
22764;SDS011;11549;50.852;3.816;2022-08-01T13:03:37;4.30;;;2.10;;
22764;SDS011;11549;50.852;3.816;2022-08-01T13:06:10;4.90;;;1.58;;
22764;SDS011;11549;50.852;3.816;2022-08-01T13:08:42;2.67;;;1.77;;
22764;SDS011;11549;50.852;3.816;2022-08-01T13:11:13;4.43;;;2.10;;
22764;SDS011;11549;50.852;3.816;2022-08-01T13:16:14;2.47;;;1.60;;
22764;SDS011;11549;50.852;3.816;2022-08-01T13:19:03;2.17;;;1.20;;
22764;SDS011;11549;50.852;3.816;2022-08-01T13:21:33;4.05;;;1.70;;
22764;SDS011;11549;50.852;3.816;2022-08-01T13:24:22;2.17;;;1.38;;
22764;SDS011;11549;50.852;3.816;2022-08-01T13:26:54;2.80;;;1.58;;
22764;SDS011;11549;50.852;3.816;2022-08-01T13:29:30;4.32;;;1.48;;
22764;SDS011;11549;50.852;3.816;2022-08-01T13:35:00;4.60;;;1.75;;
22764;SDS011;11549;50.852;3.816;2022-08-01T13:37:28;3.20;;;1.45;;
22764;SDS011;11549;50.852;3.816;2022-08-01T13:39:57;4.10;;;2.10;;
22764;SDS011;11549;50.852;3.816;2022-08-01T13:42:27;3.78;;;1.80;;
22764;SDS011;11549;50.852;3.816;2022-08-01T13:44:56;3.35;;;1.60;;
22764;SDS011;11549;50.852;3.816;2022-08-01T13:47:25;4.25;;;1.50;;
22764;SDS011;11549;50.852;3.816;2022-08-01T13:49:58;4.38;;;1.65;;
22764;SDS011;11549;50.852;3.816;2022-08-01T13:52:29;3.90;;;1.10;;
22764;SDS011;11549;50.852;3.816;2022-08-01T13:54:58;2.03;;;1.50;;
22764;SDS011;11549;50.852;3.816;2022-08-01T13:57:28;3.25;;;1.30;;
22764;SDS011;11549;50.852;3.816;2022-08-01T14:00:02;4.28;;;1.50;;
22764;SDS011;11549;50.852;3.816;2022-08-01T14:02:32;2.67;;;1.40;;
22764;SDS011;11549;50.852;3.816;2022-08-01T14:05:00;4.35;;;1.55;;
22764;SDS011;11549;50.852;3.816;2022-08-01T14:07:29;2.90;;;1.40;;
22764;SDS011;11549;50.852;3.816;2022-08-01T14:09:57;4.20;;;1.60;;
22764;SDS011;11549;50.852;3.816;2022-08-01T14:12:47;3.95;;;1.33;;
22764;SDS011;11549;50.852;3.816;2022-08-01T14:15:16;4.85;;;1.52;;
22764;SDS011;11549;50.852;3.816;2022-08-01T14:18:04;3.42;;;1.48;;
22764;SDS011;11549;50.852;3.816;2022-08-01T14:20:35;3.42;;;1.30;;
22764;SDS011;11549;50.852;3.816;2022-08-01T14:23:04;2.95;;;1.60;;
22764;SDS011;11549;50.852;3.816;2022-08-01T14:25:34;4.53;;;1.48;;
22764;SDS011;11549;50.852;3.816;2022-08-01T14:28:25;4.15;;;1.50;;
22764;SDS011;11549;50.852;3.816;2022-08-01T14:30:55;6.03;;;1.40;;
22764;SDS011;11549;50.852;3.816;2022-08-01T14:33:24;3.65;;;1.67;;
22764;SDS011;11549;50.852;3.816;2022-08-01T14:35:53;6.97;;;1.70;;
22764;SDS011;11549;50.852;3.816;2022-08-01T14:38:43;3.28;;;1.35;;
22764;SDS011;11549;50.852;3.816;2022-08-01T14:41:12;4.13;;;1.52;;
22764;SDS011;11549;50.852;3.816;2022-08-01T14:43:42;4.28;;;1.40;;
22764;SDS011;11549;50.852;3.816;2022-08-01T14:46:13;3.65;;;1.48;;
22764;SDS011;11549;50.852;3.816;2022-08-01T14:48:42;3.45;;;1.20;;
22764;SDS011;11549;50.852;3.816;2022-08-01T14:51:10;2.83;;;1.70;;
22764;SDS011;11549;50.852;3.816;2022-08-01T14:53:39;3.00;;;1.67;;
22764;SDS011;11549;50.852;3.816;2022-08-01T14:56:12;4.13;;;1.67;;
22764;SDS011;11549;50.852;3.816;2022-08-01T14:58:40;3.20;;;1.63;;
22764;SDS011;11549;50.852;3.816;2022-08-01T15:01:11;4.20;;;1.90;;
22764;SDS011;11549;50.852;3.816;2022-08-01T15:03:39;5.90;;;2.20;;
22764;SDS011;11549;50.852;3.816;2022-08-01T15:06:08;4.75;;;1.90;;
22764;SDS011;11549;50.852;3.816;2022-08-01T15:08:37;4.55;;;2.00;;
22764;SDS011;11549;50.852;3.816;2022-08-01T15:11:06;5.03;;;2.03;;
22764;SDS011;11549;50.852;3.816;2022-08-01T15:13:35;3.45;;;1.80;;
22764;SDS011;11549;50.852;3.816;2022-08-01T15:16:09;5.43;;;1.90;;
22764;SDS011;11549;50.852;3.816;2022-08-01T15:18:38;5.05;;;1.80;;
22764;SDS011;11549;50.852;3.816;2022-08-01T15:21:08;3.72;;;1.75;;
22764;SDS011;11549;50.852;3.816;2022-08-01T15:23:46;4.88;;;1.90;;
22764;SDS011;11549;50.852;3.816;2022-08-01T15:26:14;4.07;;;1.67;;
22764;SDS011;11549;50.852;3.816;2022-08-01T15:28:42;4.85;;;1.75;;
22764;SDS011;11549;50.852;3.816;2022-08-01T15:31:12;5.50;;;2.15;;
22764;SDS011;11549;50.852;3.816;2022-08-01T15:33:40;5.50;;;1.95;;